Saint Joseph, Michigan
Current Conditions -  °F | °C
As of 4:53 AM on Thursday 29 Jan 2015 (Local Time) from KBEH Reporting Station
Broken Clouds Broken Clouds  
Wind Chill: 24°   Ceiling: 11000
Heat Index: 32°   Visibility: 10mi
Dew Point: 25°   Wind: 10mph
Humidity: 75%   Direction: 150°SSE
Pressure: 29.75"   Gusts: NA
Location:  42.11°N, 86.48°W
Report Text: KBEH 290953Z AUTO 15009KT 10SM BKN110 00/M04 A2975 RMK AO2 SLP081 T00001039
Loading
Personal Weather Stations






























Interactive Weather Map New forecast layout! Learn more

10-Day Weather Forecast

Advertisements
Track Severe Weather on mobile